createdAt,value
2017-07-09T00:00:51.786Z,1008.88
2017-07-09T00:01:53.079Z,1008.88
2017-07-09T00:02:54.313Z,1008.89
2017-07-09T00:03:55.550Z,1008.86
2017-07-09T00:04:56.816Z,1008.82
2017-07-09T00:05:58.054Z,1008.83
2017-07-09T00:06:59.295Z,1008.83
2017-07-09T00:08:00.539Z,1008.84
2017-07-09T00:09:01.822Z,1008.81
2017-07-09T00:10:03.093Z,1008.85
2017-07-09T00:11:04.321Z,1008.78
2017-07-09T00:12:05.572Z,1008.81
2017-07-09T00:13:06.829Z,1008.78
2017-07-09T00:14:08.077Z,1008.73
2017-07-09T00:15:09.376Z,1008.7
2017-07-09T00:16:10.693Z,1008.72
2017-07-09T00:17:11.945Z,1008.73
2017-07-09T00:18:13.181Z,1008.72
2017-07-09T00:19:14.440Z,1008.72
2017-07-09T00:20:15.686Z,1008.76
2017-07-09T00:21:16.933Z,1008.75
2017-07-09T00:22:18.187Z,1008.77
2017-07-09T00:23:19.501Z,1008.78
2017-07-09T00:24:20.757Z,1008.76
2017-07-09T00:25:21.994Z,1008.77
2017-07-09T00:26:23.257Z,1008.78
2017-07-09T00:27:24.496Z,1008.86
2017-07-09T00:28:25.921Z,1008.82
2017-07-09T00:29:27.151Z,1008.82
2017-07-09T00:30:28.399Z,1008.84
2017-07-09T00:31:29.642Z,1008.85
2017-07-09T00:32:30.878Z,1008.87
2017-07-09T00:33:32.120Z,1008.87
2017-07-09T00:34:33.384Z,1008.9
2017-07-09T00:35:34.632Z,1008.87
2017-07-09T00:36:35.875Z,1008.9
2017-07-09T00:37:37.126Z,1008.9
2017-07-09T00:38:38.373Z,1008.85
2017-07-09T00:39:39.642Z,1008.85
2017-07-09T00:40:41.021Z,1008.9
2017-07-09T00:41:42.171Z,1008.88
2017-07-09T00:42:43.417Z,1008.83
2017-07-09T00:43:44.684Z,1008.84
2017-07-09T00:44:45.918Z,1008.82
2017-07-09T00:45:47.306Z,1008.85
2017-07-09T00:46:48.454Z,1008.83
2017-07-09T00:47:49.731Z,1008.82
2017-07-09T00:48:50.979Z,1008.79
2017-07-09T00:49:52.241Z,1008.75
2017-07-09T00:50:53.478Z,1008.69
2017-07-09T00:51:54.690Z,1008.64
2017-07-09T00:52:55.997Z,1008.63
2017-07-09T00:53:57.355Z,1008.61
2017-07-09T00:54:58.717Z,1008.61
2017-07-09T00:55:59.975Z,1008.64
2017-07-09T00:57:01.244Z,1008.63
2017-07-09T00:58:02.477Z,1008.59
2017-07-09T00:59:03.773Z,1008.61
2017-07-09T01:00:05.018Z,1008.61
2017-07-09T01:01:06.244Z,1008.66
2017-07-09T01:02:07.491Z,1008.61
2017-07-09T01:03:08.734Z,1008.61
2017-07-09T01:04:10.024Z,1008.59
2017-07-09T01:05:11.282Z,1008.54
2017-07-09T01:06:12.552Z,1008.59
2017-07-09T01:07:13.830Z,1008.56
2017-07-09T01:08:15.110Z,1008.56
2017-07-09T01:09:16.335Z,1008.53
2017-07-09T01:10:17.610Z,1008.53
2017-07-09T01:11:18.834Z,1008.52
2017-07-09T01:12:20.082Z,1008.49
2017-07-09T01:13:21.420Z,1008.44
2017-07-09T01:14:22.668Z,1008.43
2017-07-09T01:15:23.937Z,1008.42
2017-07-09T01:16:25.171Z,1008.42
2017-07-09T01:17:26.538Z,1008.39
2017-07-09T01:18:27.804Z,1008.38
2017-07-09T01:19:29.024Z,1008.33
2017-07-09T01:20:30.286Z,1008.33
2017-07-09T01:21:31.529Z,1008.33
2017-07-09T01:22:32.804Z,1008.3
2017-07-09T01:23:34.047Z,1008.3
2017-07-09T01:24:35.319Z,1008.28
2017-07-09T01:25:36.565Z,1008.3
2017-07-09T01:26:37.798Z,1008.3
2017-07-09T01:27:39.051Z,1008.34
2017-07-09T01:28:40.298Z,1008.3
2017-07-09T01:29:41.538Z,1008.3
2017-07-09T01:30:42.775Z,1008.27
2017-07-09T01:31:44.020Z,1008.31
2017-07-09T01:32:45.284Z,1008.28
2017-07-09T01:33:46.575Z,1008.29
2017-07-09T01:34:47.954Z,1008.27
2017-07-09T01:35:49.340Z,1008.26
2017-07-09T01:36:50.520Z,1008.25
2017-07-09T01:37:51.837Z,1008.19
2017-07-09T01:38:53.084Z,1008.18
2017-07-09T01:39:54.336Z,1008.21
2017-07-09T01:40:55.584Z,1008.19
2017-07-09T01:41:56.841Z,1008.19
2017-07-09T01:42:58.094Z,1008.21
2017-07-09T01:43:59.435Z,1008.22
2017-07-09T01:45:00.795Z,1008.27
2017-07-09T01:46:02.081Z,1008.25
2017-07-09T01:47:03.397Z,1008.26
2017-07-09T01:48:04.531Z,1008.29
2017-07-09T01:49:05.873Z,1008.27
2017-07-09T01:50:07.139Z,1008.27
2017-07-09T01:51:08.382Z,1008.26
2017-07-09T01:52:09.631Z,1008.28
2017-07-09T01:53:10.874Z,1008.25
2017-07-09T01:54:12.129Z,1008.27
2017-07-09T01:55:13.514Z,1008.22
2017-07-09T01:56:14.802Z,1008.22
2017-07-09T01:57:16.050Z,1008.12
2017-07-09T01:58:17.293Z,1008.13
2017-07-09T01:59:18.530Z,1008.08
2017-07-09T02:00:19.876Z,1008.05
2017-07-09T02:01:21.190Z,1008.07
2017-07-09T02:02:22.485Z,1008.06
2017-07-09T02:03:23.692Z,1008.08
2017-07-09T02:04:24.968Z,1008.08
2017-07-09T02:05:26.260Z,1008.13
2017-07-09T02:06:27.632Z,1008.13
2017-07-09T02:07:28.843Z,1008.13
2017-07-09T02:08:30.147Z,1008.14
2017-07-09T02:09:31.404Z,1008.13
2017-07-09T02:10:32.657Z,1008.14
2017-07-09T02:11:33.959Z,1008.13
2017-07-09T02:12:35.254Z,1008.07
2017-07-09T02:13:36.535Z,1008.02
2017-07-09T02:14:37.834Z,1008.05
2017-07-09T02:15:39.186Z,1008.06
2017-07-09T02:16:40.492Z,1008.11
2017-07-09T02:17:41.723Z,1008.09
2017-07-09T02:18:43.022Z,1008.12
2017-07-09T02:19:44.261Z,1008.12
2017-07-09T02:20:45.548Z,1008.08
2017-07-09T02:21:46.785Z,1008.11
2017-07-09T02:22:48.035Z,1008.12
2017-07-09T02:23:49.289Z,1008.11
2017-07-09T02:24:50.578Z,1008.11
2017-07-09T02:25:51.875Z,1008.1
2017-07-09T02:26:53.204Z,1008.09
2017-07-09T02:27:54.436Z,1008.07
2017-07-09T02:28:55.680Z,1008.08
2017-07-09T02:29:56.923Z,1008.05
2017-07-09T02:30:58.250Z,1008.02
2017-07-09T02:31:59.511Z,1008.03
2017-07-09T02:33:00.828Z,1008.07
2017-07-09T02:34:02.079Z,1008.1
2017-07-09T02:35:03.316Z,1008.15
2017-07-09T02:36:04.576Z,1008.14
2017-07-09T02:37:05.806Z,1008.11
2017-07-09T02:38:07.065Z,1008.16
2017-07-09T02:39:08.312Z,1008.18
2017-07-09T02:40:09.551Z,1008.18
2017-07-09T02:41:10.817Z,1008.15
2017-07-09T02:42:12.066Z,1008.16
2017-07-09T02:43:13.307Z,1008.09
2017-07-09T02:44:14.551Z,1008.05
2017-07-09T02:45:15.818Z,1008.1
2017-07-09T02:46:17.093Z,1008.01
2017-07-09T02:47:18.334Z,1007.94
2017-07-09T02:48:19.577Z,1007.92
2017-07-09T02:49:20.828Z,1007.9
2017-07-09T02:50:22.091Z,1007.89
2017-07-09T02:51:23.372Z,1007.94
2017-07-09T02:52:24.631Z,1007.91
2017-07-09T02:53:25.880Z,1007.95
2017-07-09T02:54:27.136Z,1007.98
2017-07-09T02:55:28.487Z,1008.02
2017-07-09T02:56:29.745Z,1008.11
2017-07-09T02:57:31.004Z,1008.13
2017-07-09T02:58:32.268Z,1008.18
2017-07-09T02:59:33.530Z,1008.16
2017-07-09T03:00:34.750Z,1008.15
2017-07-09T03:01:36.002Z,1008.1
2017-07-09T03:02:37.238Z,1008.1
2017-07-09T03:03:38.479Z,1008.06
2017-07-09T03:04:39.730Z,1008.02
2017-07-09T03:05:41.017Z,1008.02
2017-07-09T03:06:42.238Z,1008.08
2017-07-09T03:07:43.483Z,1008.11
2017-07-09T03:08:44.744Z,1008.12
2017-07-09T03:09:46.037Z,1008.09
2017-07-09T03:10:47.282Z,1008.17
2017-07-09T03:11:48.571Z,1008.12
2017-07-09T03:12:49.844Z,1008.11
2017-07-09T03:13:51.060Z,1008.12
2017-07-09T03:14:52.334Z,1008.12
2017-07-09T03:15:53.619Z,1008.11
2017-07-09T03:16:54.882Z,1008.08
2017-07-09T03:17:56.108Z,1008.07
2017-07-09T03:18:57.346Z,1008.03
2017-07-09T03:19:58.598Z,1008
2017-07-09T03:20:59.856Z,1008.05
2017-07-09T03:22:01.217Z,1008.04
2017-07-09T03:23:02.458Z,1008.03
2017-07-09T03:24:03.705Z,1008.06
2017-07-09T03:25:04.954Z,1008.08
2017-07-09T03:26:06.223Z,1008.1
2017-07-09T03:27:07.475Z,1008.1
2017-07-09T03:28:08.722Z,1008.11
2017-07-09T03:29:09.979Z,1008.08
2017-07-09T03:30:11.286Z,1008.1
2017-07-09T03:31:12.529Z,1008.11
2017-07-09T03:32:13.783Z,1008.13
2017-07-09T03:33:15.026Z,1008.09
2017-07-09T03:34:16.262Z,1008.07
2017-07-09T03:35:17.509Z,1008.13
2017-07-09T03:36:18.852Z,1008.11
2017-07-09T03:37:20.125Z,1008.12
2017-07-09T03:38:21.370Z,1008.11
2017-07-09T03:39:22.611Z,1008.1
2017-07-09T03:40:23.873Z,1008.08
2017-07-09T03:41:25.167Z,1008.08
2017-07-09T03:42:26.384Z,1008.1
2017-07-09T03:43:27.643Z,1008.12
2017-07-09T03:44:28.944Z,1008.11
2017-07-09T03:45:30.195Z,1008.13
2017-07-09T03:46:31.500Z,1008.2
2017-07-09T03:47:32.767Z,1008.21
2017-07-09T03:48:34.003Z,1008.26
2017-07-09T03:49:35.353Z,1008.23
2017-07-09T03:50:36.618Z,1008.27
2017-07-09T03:51:37.915Z,1008.27
2017-07-09T03:52:39.178Z,1008.3
2017-07-09T03:53:40.443Z,1008.29
2017-07-09T03:54:41.688Z,1008.3
2017-07-09T03:55:42.937Z,1008.28
2017-07-09T03:56:44.185Z,1008.27
2017-07-09T03:57:45.449Z,1008.24
2017-07-09T03:58:46.740Z,1008.22
2017-07-09T03:59:47.995Z,1008.22
2017-07-09T04:00:49.239Z,1008.23
2017-07-09T04:01:50.475Z,1008.24
2017-07-09T04:02:51.719Z,1008.27
2017-07-09T04:03:52.973Z,1008.24
2017-07-09T04:04:54.216Z,1008.27
2017-07-09T04:05:55.587Z,1008.3
2017-07-09T04:06:57.009Z,1008.29
2017-07-09T04:07:58.269Z,1008.32
2017-07-09T04:08:59.503Z,1008.31
2017-07-09T04:10:00.758Z,1008.28
2017-07-09T04:11:02.082Z,1008.28
2017-07-09T04:12:03.428Z,1008.28
2017-07-09T04:13:04.727Z,1008.31
2017-07-09T04:14:05.987Z,1008.32
2017-07-09T04:15:07.206Z,1008.31
2017-07-09T04:16:08.527Z,1008.32
2017-07-09T04:17:09.764Z,1008.27
2017-07-09T04:18:11.145Z,1008.26
2017-07-09T04:19:12.408Z,1008.28
2017-07-09T04:20:13.655Z,1008.22
2017-07-09T04:21:14.902Z,1008.19
2017-07-09T04:22:16.175Z,1008.22
2017-07-09T04:23:17.529Z,1008.25
2017-07-09T04:24:18.806Z,1008.28
2017-07-09T04:25:20.038Z,1008.29
2017-07-09T04:26:21.273Z,1008.36
2017-07-09T04:27:22.546Z,1008.31
2017-07-09T04:28:23.826Z,1008.32
2017-07-09T04:29:25.046Z,1008.33
2017-07-09T04:30:26.293Z,1008.34
2017-07-09T04:31:27.576Z,1008.28
2017-07-09T04:32:28.825Z,1008.27
2017-07-09T04:33:30.106Z,1008.25
2017-07-09T04:34:31.414Z,1008.2
2017-07-09T04:35:32.596Z,1008.21
2017-07-09T04:36:33.869Z,1008.24
2017-07-09T04:37:35.118Z,1008.23
2017-07-09T04:38:36.357Z,1008.24
2017-07-09T04:39:37.596Z,1008.25
2017-07-09T04:40:38.837Z,1008.24
2017-07-09T04:41:40.182Z,1008.19
2017-07-09T04:42:41.513Z,1008.26
2017-07-09T04:43:42.783Z,1008.25
2017-07-09T04:44:44.033Z,1008.25
2017-07-09T04:45:45.289Z,1008.27
2017-07-09T04:46:46.545Z,1008.3
2017-07-09T04:47:47.813Z,1008.31
2017-07-09T04:48:49.073Z,1008.27
2017-07-09T04:49:50.330Z,1008.3
2017-07-09T04:50:51.570Z,1008.31
2017-07-09T04:51:52.817Z,1008.26
2017-07-09T04:52:54.088Z,1008.27
2017-07-09T04:53:55.356Z,1008.26
2017-07-09T04:54:56.583Z,1008.27
2017-07-09T04:55:57.833Z,1008.35
2017-07-09T04:56:59.112Z,1008.3
2017-07-09T04:58:00.368Z,1008.3
2017-07-09T04:59:01.656Z,1008.32
2017-07-09T05:00:02.885Z,1008.3
2017-07-09T05:01:04.233Z,1008.27
2017-07-09T05:02:05.456Z,1008.25
2017-07-09T05:03:06.724Z,1008.26
2017-07-09T05:04:07.953Z,1008.23
2017-07-09T05:05:09.213Z,1008.23
2017-07-09T05:06:10.442Z,1008.19
2017-07-09T05:07:11.744Z,1008.22
2017-07-09T05:08:13.065Z,1008.26
2017-07-09T05:09:14.312Z,1008.25
2017-07-09T05:10:15.559Z,1008.23
2017-07-09T05:11:16.808Z,1008.24
2017-07-09T05:12:18.054Z,1008.19
2017-07-09T05:13:19.389Z,1008.19
2017-07-09T05:14:20.688Z,1008.15
2017-07-09T05:15:21.985Z,1008.14
2017-07-09T05:16:23.272Z,1008.11
2017-07-09T05:17:24.525Z,1008.09
2017-07-09T05:18:25.879Z,1008.11
2017-07-09T05:19:27.099Z,1008.11
2017-07-09T05:20:28.371Z,1008.12
2017-07-09T05:21:29.620Z,1008.08
2017-07-09T05:22:30.877Z,1008.16
2017-07-09T05:23:32.141Z,1008.19
2017-07-09T05:24:33.399Z,1008.15
2017-07-09T05:25:34.639Z,1008.17
2017-07-09T05:26:35.886Z,1008.1
2017-07-09T05:27:37.228Z,1008.1
2017-07-09T05:28:38.540Z,1008.09
2017-07-09T05:29:39.751Z,1008.11
2017-07-09T05:30:40.998Z,1008.09
2017-07-09T05:31:42.237Z,1008.08
2017-07-09T05:32:43.546Z,1008.09
2017-07-09T05:33:44.789Z,1008.04
2017-07-09T05:34:46.039Z,1008.07
2017-07-09T05:35:47.290Z,1008.09
2017-07-09T05:36:48.585Z,1008.08
2017-07-09T05:37:49.885Z,1008.05
2017-07-09T05:38:51.138Z,1008
2017-07-09T05:39:52.393Z,1007.99
2017-07-09T05:40:53.632Z,1007.97
2017-07-09T05:41:54.874Z,1007.99
2017-07-09T05:42:56.119Z,1007.98
2017-07-09T05:43:57.490Z,1007.99
2017-07-09T05:44:58.749Z,1008.01
2017-07-09T05:45:59.969Z,1008.15
2017-07-09T05:47:01.238Z,1008.22
2017-07-09T05:48:02.465Z,1008.21
2017-07-09T05:49:03.692Z,1008.14
2017-07-09T05:50:04.985Z,1008.09
2017-07-09T05:51:06.223Z,1008.15
2017-07-09T05:52:07.600Z,1008.18
2017-07-09T05:53:08.910Z,1008.22
2017-07-09T05:54:10.158Z,1008.22
2017-07-09T05:55:11.416Z,1008.21
2017-07-09T05:56:12.660Z,1008.11
2017-07-09T05:57:13.934Z,1008.03
2017-07-09T05:58:15.158Z,1008.07
2017-07-09T05:59:16.402Z,1008.06
2017-07-09T06:00:17.627Z,1008.09
2017-07-09T06:01:18.882Z,1008.14
2017-07-09T06:02:20.131Z,1008.06
2017-07-09T06:03:21.444Z,1008.04
2017-07-09T06:04:22.738Z,1007.98
2017-07-09T06:05:23.991Z,1007.99
2017-07-09T06:06:25.239Z,1008.01
2017-07-09T06:07:26.485Z,1008
2017-07-09T06:08:27.867Z,1008.02
2017-07-09T06:09:29.105Z,1007.99
2017-07-09T06:10:30.363Z,1008.01
2017-07-09T06:11:31.616Z,1007.99
2017-07-09T06:12:32.867Z,1007.95
2017-07-09T06:13:34.104Z,1007.97
2017-07-09T06:14:35.365Z,1008.01
2017-07-09T06:15:36.602Z,1008.01
2017-07-09T06:16:37.918Z,1008.02
2017-07-09T06:17:39.196Z,1008.05
2017-07-09T06:18:40.463Z,1008.05
2017-07-09T06:19:41.706Z,1008.06
2017-07-09T06:20:42.957Z,1008.06
2017-07-09T06:21:44.228Z,1008.03
2017-07-09T06:22:45.503Z,1008.02
2017-07-09T06:23:46.754Z,1007.98
2017-07-09T06:24:48.031Z,1007.96
2017-07-09T06:25:49.291Z,1007.94
2017-07-09T06:26:50.579Z,1007.94
2017-07-09T06:27:51.828Z,1007.95
2017-07-09T06:28:53.099Z,1007.94
2017-07-09T06:29:54.330Z,1007.94
2017-07-09T06:30:55.585Z,1007.89
2017-07-09T06:31:56.838Z,1007.97
2017-07-09T06:32:58.109Z,1007.97
2017-07-09T06:33:59.348Z,1007.97
2017-07-09T06:35:00.592Z,1008
2017-07-09T06:36:01.922Z,1008.03
2017-07-09T06:37:03.202Z,1008.06
2017-07-09T06:38:04.448Z,1008.07
2017-07-09T06:39:05.781Z,1008.09
2017-07-09T06:40:07.047Z,1008.11
2017-07-09T06:41:08.282Z,1008.13
2017-07-09T06:42:09.538Z,1008.16
2017-07-09T06:43:10.780Z,1008.18
2017-07-09T06:44:12.029Z,1008.15
2017-07-09T06:45:13.272Z,1008.2
2017-07-09T06:46:14.553Z,1008.21
2017-07-09T06:47:15.952Z,1008.35
2017-07-09T06:48:17.208Z,1008.23
2017-07-09T06:49:18.463Z,1008.23
2017-07-09T06:50:19.693Z,1008.26
2017-07-09T06:51:20.938Z,1008.3
2017-07-09T06:52:22.285Z,1008.37
2017-07-09T06:53:23.514Z,1008.41
2017-07-09T06:54:24.777Z,1008.47
2017-07-09T06:55:26.025Z,1008.49
2017-07-09T06:56:27.275Z,1008.51
2017-07-09T06:57:28.561Z,1008.4
2017-07-09T06:58:29.911Z,1008.38
2017-07-09T06:59:31.174Z,1008.33
2017-07-09T07:00:32.447Z,1008.34
2017-07-09T07:01:33.672Z,1008.35
2017-07-09T07:02:34.919Z,1008.33
2017-07-09T07:03:36.190Z,1008.29
2017-07-09T07:04:37.477Z,1008.25
2017-07-09T07:05:38.749Z,1008.28
2017-07-09T07:06:39.982Z,1008.23
2017-07-09T07:07:41.227Z,1008.2
2017-07-09T07:08:42.492Z,1008.2
2017-07-09T07:09:43.741Z,1008.21
2017-07-09T07:10:45.006Z,1008.2
2017-07-09T07:11:46.267Z,1008.17
2017-07-09T07:12:47.616Z,1008.18
2017-07-09T07:13:48.943Z,1008.22
2017-07-09T07:14:50.192Z,1008.21
2017-07-09T07:15:51.491Z,1008.22
2017-07-09T07:16:52.738Z,1008.21
2017-07-09T07:17:54.045Z,1008.27
2017-07-09T07:18:55.346Z,1008.25
2017-07-09T07:19:56.594Z,1008.3
2017-07-09T07:20:57.870Z,1008.33
2017-07-09T07:21:59.099Z,1008.28
2017-07-09T07:23:00.358Z,1008.29
2017-07-09T07:24:01.636Z,1008.31
2017-07-09T07:25:02.979Z,1008.33
2017-07-09T07:26:04.233Z,1008.53
2017-07-09T07:27:05.509Z,1008.49
2017-07-09T07:28:06.788Z,1008.44
2017-07-09T07:29:08.154Z,1008.79
2017-07-09T07:30:09.454Z,1008.42
2017-07-09T07:31:10.723Z,1008.46
2017-07-09T07:32:11.961Z,1008.43
2017-07-09T07:33:13.214Z,1008.5
2017-07-09T07:34:14.559Z,1008.45
2017-07-09T07:35:15.874Z,1008.48
2017-07-09T07:36:17.180Z,1008.51
2017-07-09T07:37:18.440Z,1008.65
2017-07-09T07:38:19.790Z,1008.5
2017-07-09T07:39:21.023Z,1008.55
2017-07-09T07:40:22.374Z,1008.75
2017-07-09T07:41:23.764Z,1008.59
2017-07-09T07:42:25.019Z,1008.76
2017-07-09T07:43:26.271Z,1008.65
2017-07-09T07:44:27.547Z,1008.87
2017-07-09T07:45:28.769Z,1008.67
2017-07-09T07:46:30.156Z,1008.52
2017-07-09T07:47:31.407Z,1008.54
2017-07-09T07:48:32.663Z,1008.55
2017-07-09T07:49:33.934Z,1008.57
2017-07-09T07:50:35.242Z,1008.95
2017-07-09T07:51:36.563Z,1008.68
2017-07-09T07:52:37.827Z,1009.06
2017-07-09T07:53:39.093Z,1008.97
2017-07-09T07:54:40.362Z,1008.92
2017-07-09T07:55:41.621Z,1008.56
2017-07-09T07:56:42.870Z,1008.42
2017-07-09T07:57:44.241Z,1008.42
2017-07-09T07:58:45.550Z,1008.43
2017-07-09T07:59:46.807Z,1008.48
2017-07-09T08:00:48.067Z,1008.45
2017-07-09T08:01:49.345Z,1008.37
2017-07-09T08:02:50.643Z,1008.45
2017-07-09T08:03:51.903Z,1008.57
2017-07-09T08:04:53.194Z,1008.76
2017-07-09T08:05:54.439Z,1008.66
2017-07-09T08:06:55.702Z,1008.75
2017-07-09T08:07:56.958Z,1008.79
2017-07-09T08:08:58.208Z,1008.64
2017-07-09T08:09:59.466Z,1008.73
2017-07-09T08:11:00.838Z,1009.28
2017-07-09T08:12:02.097Z,1009.06
2017-07-09T08:13:03.377Z,1008.57
2017-07-09T08:14:04.635Z,1008.6
2017-07-09T08:15:05.891Z,1008.37
2017-07-09T08:16:07.133Z,1008.35
2017-07-09T08:17:08.383Z,1008.33
2017-07-09T08:18:09.828Z,1008.39
2017-07-09T08:19:11.089Z,1008.26
2017-07-09T08:20:12.397Z,1008.15
2017-07-09T08:21:13.667Z,1008.14
2017-07-09T08:22:14.921Z,1008.08
2017-07-09T08:23:16.226Z,1008.09
2017-07-09T08:24:17.535Z,1008.08
2017-07-09T08:25:18.753Z,1008.05
2017-07-09T08:26:20.017Z,1008.04
2017-07-09T08:27:21.273Z,1008.01
2017-07-09T08:28:22.579Z,1007.96
2017-07-09T08:29:23.949Z,1008.02
2017-07-09T08:30:25.236Z,1008.03
2017-07-09T08:31:26.457Z,1008.08
2017-07-09T08:32:27.738Z,1008.01
2017-07-09T08:33:28.969Z,1008.05
2017-07-09T08:34:30.268Z,1008.03
2017-07-09T08:35:31.524Z,1008.01
2017-07-09T08:36:32.798Z,1008.02
2017-07-09T08:37:34.056Z,1007.96
2017-07-09T08:38:35.314Z,1007.97
2017-07-09T08:39:36.646Z,1007.92
2017-07-09T08:40:37.936Z,1007.92
2017-07-09T08:41:39.254Z,1007.9
2017-07-09T08:42:40.489Z,1007.85
2017-07-09T08:43:41.757Z,1007.82
2017-07-09T08:44:43.008Z,1007.85
2017-07-09T08:45:44.293Z,1007.83
2017-07-09T08:46:45.596Z,1007.83
2017-07-09T08:47:46.844Z,1007.82
2017-07-09T08:48:48.123Z,1007.84
2017-07-09T08:49:49.399Z,1007.87
2017-07-09T08:50:50.635Z,1007.88
2017-07-09T08:51:51.911Z,1007.91
2017-07-09T08:52:53.265Z,1007.88
2017-07-09T08:53:54.487Z,1007.91
2017-07-09T08:54:55.720Z,1007.89
2017-07-09T08:55:56.990Z,1007.85
2017-07-09T08:56:58.332Z,1007.86
2017-07-09T08:57:59.792Z,1007.86
2017-07-09T08:59:01.070Z,1007.84
2017-07-09T09:00:02.333Z,1007.87
2017-07-09T09:01:03.596Z,1007.88
2017-07-09T09:02:04.861Z,1007.93
2017-07-09T09:03:06.188Z,1007.98
2017-07-09T09:04:07.561Z,1008.03
2017-07-09T09:05:08.879Z,1007.94
2017-07-09T09:06:10.117Z,1008
2017-07-09T09:07:11.398Z,1008
2017-07-09T09:08:12.658Z,1008.06
2017-07-09T09:09:13.940Z,1008.01
2017-07-09T09:10:15.194Z,1007.97
2017-07-09T09:11:16.460Z,1008
2017-07-09T09:12:17.731Z,1007.95
2017-07-09T09:13:18.990Z,1007.98
2017-07-09T09:14:20.259Z,1008.29
2017-07-09T09:15:21.529Z,1009.11
2017-07-09T09:16:22.808Z,1008.96
2017-07-09T09:17:24.065Z,1009.04
2017-07-09T09:18:25.358Z,1009.14
2017-07-09T09:19:26.599Z,1009.17
2017-07-09T09:20:27.856Z,1009.23
2017-07-09T09:21:29.191Z,1009.31
2017-07-09T09:22:30.394Z,1009.48
2017-07-09T09:23:31.639Z,1009.64
2017-07-09T09:24:32.899Z,1009.81
2017-07-09T09:25:34.167Z,1009.92
2017-07-09T09:26:35.425Z,1009.94
2017-07-09T09:27:36.687Z,1010.11
2017-07-09T09:28:38.106Z,1010.13
2017-07-09T09:29:39.386Z,1010.28
2017-07-09T09:30:40.662Z,1009.98
2017-07-09T09:31:41.921Z,1010.02
2017-07-09T09:32:43.194Z,1010.06
2017-07-09T09:33:44.531Z,1009.97
2017-07-09T09:34:45.774Z,1009.89
2017-07-09T09:35:47.060Z,1009.17
2017-07-09T09:36:48.322Z,1010.38
2017-07-09T09:37:49.591Z,1010.05
2017-07-09T09:38:50.858Z,1010.37
2017-07-09T09:39:52.189Z,1010.64
2017-07-09T09:40:53.492Z,1011.09
2017-07-09T09:41:54.722Z,1011.07
2017-07-09T09:42:55.976Z,1011.09
2017-07-09T09:43:57.231Z,1011.14
2017-07-09T09:44:58.504Z,1011.46
2017-07-09T09:45:59.781Z,1011.57
2017-07-09T09:47:01.090Z,1011.46
2017-07-09T09:48:02.361Z,1011.72
2017-07-09T09:49:03.618Z,1011.75
2017-07-09T09:50:04.900Z,1011.45
2017-07-09T09:51:06.199Z,1011.5
2017-07-09T09:52:07.553Z,1011.08
2017-07-09T09:53:08.824Z,1011.53
2017-07-09T09:54:10.098Z,1011.57
2017-07-09T09:55:11.361Z,1011.21
2017-07-09T09:56:12.623Z,1011.07
2017-07-09T09:57:14.068Z,1008.73
2017-07-09T09:58:15.444Z,1008.98
2017-07-09T09:59:16.706Z,1008.36
2017-07-09T10:00:18.022Z,1007.68
2017-07-09T10:01:19.274Z,1007.59
2017-07-09T10:02:20.551Z,1007.55
2017-07-09T10:03:21.908Z,1007.53
2017-07-09T10:04:23.313Z,1007.53
2017-07-09T10:05:24.528Z,1007.5
2017-07-09T10:06:25.793Z,1007.54
2017-07-09T10:07:27.053Z,1007.52
2017-07-09T10:08:28.328Z,1007.48
2017-07-09T10:09:29.618Z,1008.32
2017-07-09T10:10:30.877Z,1008.1
2017-07-09T10:11:32.137Z,1007.68
2017-07-09T10:12:33.390Z,1008.89
2017-07-09T10:13:34.670Z,1008.19
2017-07-09T10:14:36.026Z,1007.73
2017-07-09T10:15:37.379Z,1007.88
2017-07-09T10:16:38.622Z,1007.67
2017-07-09T10:17:39.880Z,1007.71
2017-07-09T10:18:41.153Z,1007.58
2017-07-09T10:19:42.415Z,1007.75
2017-07-09T10:20:43.807Z,1007.53
2017-07-09T10:21:45.106Z,1007.5
2017-07-09T10:22:46.357Z,1007.52
2017-07-09T10:23:47.613Z,1007.43
2017-07-09T10:24:48.871Z,1007.52
2017-07-09T10:25:50.121Z,1007.51
2017-07-09T10:26:51.403Z,1007.49
2017-07-09T10:27:52.658Z,1007.48
2017-07-09T10:28:53.937Z,1007.5
2017-07-09T10:29:55.221Z,1007.49
2017-07-09T10:30:56.458Z,1007.5
2017-07-09T10:31:57.751Z,1007.46
2017-07-09T10:32:59.008Z,1007.37
2017-07-09T10:34:00.243Z,1007.28
2017-07-09T10:35:01.522Z,1007.22
2017-07-09T10:36:02.773Z,1007.21
2017-07-09T10:37:04.036Z,1007.25
2017-07-09T10:38:05.323Z,1007.21
2017-07-09T10:39:06.577Z,1007.2
2017-07-09T10:40:07.947Z,1007.22
2017-07-09T10:41:09.302Z,1007.2
2017-07-09T10:42:10.561Z,1007.27
2017-07-09T10:43:11.815Z,1007.28
2017-07-09T10:44:13.097Z,1007.22
2017-07-09T10:45:14.388Z,1007.21
2017-07-09T10:46:15.796Z,1007.17
2017-07-09T10:47:17.053Z,1007.18
2017-07-09T10:48:18.339Z,1007.19
2017-07-09T10:49:19.603Z,1007.26
2017-07-09T10:50:20.896Z,1007.26
2017-07-09T10:51:22.140Z,1007.29
2017-07-09T10:52:23.401Z,1007.37
2017-07-09T10:53:24.646Z,1007.29
2017-07-09T10:54:25.945Z,1007.3
2017-07-09T10:55:27.196Z,1007.24
2017-07-09T10:56:28.447Z,1007.25
2017-07-09T10:57:29.746Z,1007.29
2017-07-09T10:58:31.003Z,1007.32
2017-07-09T10:59:32.249Z,1007.29
2017-07-09T11:00:33.509Z,1007.25
2017-07-09T11:01:34.758Z,1007.25
2017-07-09T11:02:36.019Z,1007.22
2017-07-09T11:03:37.275Z,1007.22
2017-07-09T11:04:38.524Z,1007.26
2017-07-09T11:05:39.774Z,1007.26
2017-07-09T11:06:41.033Z,1007.25
2017-07-09T11:07:42.341Z,1007.25
2017-07-09T11:08:43.660Z,1007.22
2017-07-09T11:09:44.920Z,1007.18
2017-07-09T11:10:46.178Z,1007.22
2017-07-09T11:11:47.438Z,1007.19
2017-07-09T11:12:48.697Z,1007.15
2017-07-09T11:13:49.966Z,1007.12
2017-07-09T11:14:51.240Z,1007.16
2017-07-09T11:15:52.515Z,1007.07
2017-07-09T11:16:53.757Z,1007.08
2017-07-09T11:17:55.053Z,1007.13
2017-07-09T11:18:56.373Z,1007.16
2017-07-09T11:19:57.633Z,1007.15
2017-07-09T11:20:58.888Z,1007.12
2017-07-09T11:22:00.172Z,1007.1
2017-07-09T11:23:01.408Z,1007.07
2017-07-09T11:24:02.657Z,1007.03
2017-07-09T11:25:03.954Z,1006.98
2017-07-09T11:26:05.185Z,1006.94
2017-07-09T11:27:06.536Z,1006.98
2017-07-09T11:28:07.981Z,1007.02
2017-07-09T11:29:09.288Z,1007.07
2017-07-09T11:30:10.526Z,1007
2017-07-09T11:31:11.820Z,1006.96
2017-07-09T11:32:13.080Z,1006.93
2017-07-09T11:33:14.345Z,1006.93
2017-07-09T11:34:15.719Z,1006.84
2017-07-09T11:35:16.946Z,1006.88
2017-07-09T11:36:18.207Z,1006.92
2017-07-09T11:37:19.470Z,1006.94
2017-07-09T11:38:20.714Z,1007
2017-07-09T11:39:21.992Z,1006.98
2017-07-09T11:40:23.252Z,1006.93
2017-07-09T11:41:24.511Z,1006.95
2017-07-09T11:42:25.753Z,1006.9
2017-07-09T11:43:27.026Z,1006.95
2017-07-09T11:44:28.287Z,1006.94
2017-07-09T11:45:29.718Z,1006.97
2017-07-09T11:46:30.983Z,1006.9
2017-07-09T11:47:32.294Z,1006.91
2017-07-09T11:48:33.557Z,1006.9
2017-07-09T11:49:34.822Z,1006.89
2017-07-09T11:50:36.123Z,1006.84
2017-07-09T11:51:37.397Z,1006.84
2017-07-09T11:52:38.649Z,1006.86
2017-07-09T11:53:39.899Z,1006.81
2017-07-09T11:54:41.159Z,1006.76
2017-07-09T11:55:42.417Z,1006.76
2017-07-09T11:56:43.687Z,1006.79
2017-07-09T11:57:44.986Z,1006.84
2017-07-09T11:58:46.242Z,1006.87
2017-07-09T11:59:47.495Z,1006.83
2017-07-09T12:00:48.778Z,1006.78
2017-07-09T12:01:50.021Z,1006.77
2017-07-09T12:02:51.288Z,1006.72
2017-07-09T12:03:52.554Z,1006.75
2017-07-09T12:04:53.819Z,1006.76
2017-07-09T12:05:55.079Z,1006.73
2017-07-09T12:06:56.354Z,1006.76
2017-07-09T12:07:57.679Z,1006.77
2017-07-09T12:08:58.868Z,1006.76
2017-07-09T12:10:00.198Z,1006.8
2017-07-09T12:11:01.481Z,1006.75
2017-07-09T12:12:02.743Z,1006.77
2017-07-09T12:13:04.019Z,1006.74
2017-07-09T12:14:05.249Z,1006.77
2017-07-09T12:15:06.509Z,1006.75
2017-07-09T12:16:07.849Z,1006.74
2017-07-09T12:17:09.125Z,1006.7
2017-07-09T12:18:10.374Z,1006.77
2017-07-09T12:19:11.644Z,1006.77
2017-07-09T12:20:12.903Z,1006.77
2017-07-09T12:21:14.194Z,1006.79
2017-07-09T12:22:15.452Z,1006.76
2017-07-09T12:23:16.721Z,1006.76
2017-07-09T12:24:17.971Z,1006.77